Time;durP1;ratioP1;P1;durP2;ratioP2;P2;SDS_P1;SDS_P2;PMS_P1;PMS_P2;Temp;Humidity;BMP_temperature;BMP_pressure;BME280_temperature;BME280_humidity;BME280_pressure;Samples;Min_cycle;Max_cycle;Signal;HPM_P1;HPM_P2
2023/12/10 00:01:15;;;;;;;19.27;10.32;;;2.90;99.90;;;;;;4986973;28;20082;-63
2023/12/10 00:03:41;;;;;;;15.85;10.35;;;3.00;99.90;;;;;;4988468;28;20473;-62
2023/12/10 00:06:07;;;;;;;14.95;10.88;;;2.90;99.90;;;;;;4988529;28;20054;-61
2023/12/10 00:08:33;;;;;;;13.38;10.32;;;3.00;99.90;;;;;;4988942;28;20054;-62
2023/12/10 00:10:58;;;;;;;14.00;9.82;;;3.00;99.90;;;;;;4987633;28;20477;-62
2023/12/10 00:13:24;;;;;;;24.38;9.95;;;3.00;99.90;;;;;;4989817;28;20038;-62
2023/12/10 00:15:51;;;;;;;15.45;10.60;;;3.00;99.90;;;;;;4988396;28;20033;-61
2023/12/10 00:18:16;;;;;;;14.30;10.23;;;3.10;99.90;;;;;;4988687;28;20074;-62
2023/12/10 00:20:43;;;;;;;20.65;11.30;;;3.10;99.90;;;;;;4988239;28;20069;-63
2023/12/10 00:23:11;;;;;;;19.75;11.52;;;3.10;99.90;;;;;;4988134;28;20030;-62
2023/12/10 00:25:43;;;;;;;26.02;11.27;;;3.10;99.90;;;;;;4986999;28;20030;-62
2023/12/10 00:28:09;;;;;;;14.85;10.77;;;3.20;99.90;;;;;;4987992;28;20035;-63
2023/12/10 00:30:36;;;;;;;26.20;11.25;;;3.20;99.90;;;;;;4989947;28;20026;-62
2023/12/10 00:33:03;;;;;;;17.23;10.88;;;3.20;99.90;;;;;;4987457;28;20912;-62
2023/12/10 00:35:29;;;;;;;24.33;11.48;;;3.20;99.90;;;;;;4987302;28;20521;-62
2023/12/10 00:37:54;;;;;;;19.05;11.40;;;3.20;99.90;;;;;;4988358;28;20042;-62
2023/12/10 00:40:21;;;;;;;32.28;12.57;;;3.20;99.90;;;;;;4986162;28;20038;-62
2023/12/10 00:42:47;;;;;;;24.60;10.55;;;3.30;99.90;;;;;;4987990;28;20913;-62
2023/12/10 00:45:12;;;;;;;14.48;10.05;;;3.30;99.90;;;;;;4988214;28;20049;-62
2023/12/10 00:47:38;;;;;;;13.00;10.18;;;3.30;99.90;;;;;;4986376;28;20038;-63
2023/12/10 00:50:04;;;;;;;28.02;11.98;;;3.30;99.90;;;;;;4988901;28;20023;-60
2023/12/10 00:52:30;;;;;;;20.85;11.13;;;3.30;99.90;;;;;;4986076;28;20498;-62
2023/12/10 00:54:56;;;;;;;17.02;10.68;;;3.30;99.90;;;;;;4988256;28;20045;-63
2023/12/10 00:57:21;;;;;;;19.80;11.38;;;3.40;99.90;;;;;;4987295;28;20098;-62
2023/12/10 00:59:47;;;;;;;22.40;11.95;;;3.40;99.90;;;;;;4987173;28;20035;-62
2023/12/10 01:02:13;;;;;;;29.35;12.13;;;3.30;99.90;;;;;;4988756;28;20038;-62
2023/12/10 01:04:38;;;;;;;25.55;12.30;;;3.40;99.90;;;;;;4986760;28;20034;-61
2023/12/10 01:07:04;;;;;;;15.15;11.30;;;3.40;99.90;;;;;;4985857;28;20133;-62
2023/12/10 01:09:30;;;;;;;18.83;11.57;;;3.50;99.90;;;;;;4986085;28;20449;-62
2023/12/10 01:11:55;;;;;;;45.53;13.27;;;3.50;99.90;;;;;;4987028;28;20026;-62
2023/12/10 01:14:21;;;;;;;14.27;11.55;;;3.50;99.90;;;;;;4986651;28;20060;-61
2023/12/10 01:16:48;;;;;;;35.83;12.20;;;3.60;99.90;;;;;;4987102;28;20037;-62
2023/12/10 01:19:14;;;;;;;14.00;10.77;;;3.60;99.90;;;;;;4986804;28;20034;-62
2023/12/10 01:21:39;;;;;;;19.05;13.07;;;3.60;99.90;;;;;;4988848;28;20029;-62
2023/12/10 01:24:05;;;;;;;23.55;13.65;;;3.70;99.90;;;;;;4985473;28;20081;-63
2023/12/10 01:26:31;;;;;;;10.55;9.07;;;3.70;99.90;;;;;;4981176;28;20398;-62
2023/12/10 01:28:57;;;;;;;11.13;8.27;;;3.90;99.90;;;;;;4984303;28;20030;-62
2023/12/10 01:31:22;;;;;;;17.60;9.13;;;4.30;99.90;;;;;;4986462;28;20457;-62
2023/12/10 01:33:48;;;;;;;16.08;9.68;;;4.60;99.90;;;;;;4987098;28;20085;-63
2023/12/10 01:36:23;;;;;;;11.23;8.50;;;4.90;99.90;;;;;;4986618;28;20039;-63
2023/12/10 01:38:49;;;;;;;11.65;6.47;;;5.10;99.90;;;;;;4983600;28;20114;-63
2023/12/10 01:41:16;;;;;;;7.97;5.95;;;5.20;99.90;;;;;;4985844;28;20042;-63
2023/12/10 01:43:43;;;;;;;12.85;4.03;;;5.40;99.90;;;;;;4986661;28;20035;-63
2023/12/10 01:46:08;;;;;;;11.50;4.47;;;5.60;99.90;;;;;;4986522;28;20034;-61
2023/12/10 01:48:34;;;;;;;12.32;4.07;;;6.00;99.90;;;;;;4986692;28;20026;-62
2023/12/10 01:51:01;;;;;;;17.17;3.70;;;6.20;99.90;;;;;;4985743;28;20037;-62
2023/12/10 01:53:26;;;;;;;10.35;3.45;;;6.30;99.90;;;;;;4986410;28;20030;-62
2023/12/10 01:55:52;;;;;;;10.57;3.85;;;6.30;99.90;;;;;;4985253;28;20859;-62
2023/12/10 01:58:18;;;;;;;13.88;3.65;;;6.40;99.90;;;;;;4989099;28;20499;-63
2023/12/10 02:00:44;;;;;;;10.13;3.58;;;6.40;99.90;;;;;;4986606;28;20034;-62
2023/12/10 02:03:10;;;;;;;10.95;4.00;;;6.50;99.90;;;;;;4987477;28;20114;-64
2023/12/10 02:05:36;;;;;;;17.65;3.67;;;6.40;99.90;;;;;;4985805;28;20077;-62
2023/12/10 02:08:02;;;;;;;19.60;3.30;;;6.40;99.90;;;;;;4984417;28;20030;-62
2023/12/10 02:10:28;;;;;;;11.55;3.53;;;6.30;99.90;;;;;;4988604;28;20041;-62
2023/12/10 02:12:55;;;;;;;12.55;2.83;;;6.30;99.90;;;;;;4985513;28;20149;-62
2023/12/10 02:15:22;;;;;;;15.65;2.95;;;6.30;99.90;;;;;;4984301;28;20076;-63
2023/12/10 02:17:49;;;;;;;11.00;3.58;;;6.30;99.90;;;;;;4985920;28;20022;-62
2023/12/10 02:20:16;;;;;;;11.63;3.15;;;6.30;99.90;;;;;;4983857;28;20042;-62
2023/12/10 02:23:14;;;;;;;14.18;2.95;;;6.40;99.90;;;;;;4987572;28;20030;-63
2023/12/10 02:25:40;;;;;;;10.88;3.05;;;6.50;99.90;;;;;;4985325;28;20479;-63
2023/12/10 02:28:07;;;;;;;14.75;3.72;;;6.50;99.90;;;;;;4985902;28;20037;-62
2023/12/10 02:30:35;;;;;;;9.43;3.10;;;6.60;99.90;;;;;;4985827;28;20045;-62
2023/12/10 02:33:01;;;;;;;27.60;4.43;;;6.60;99.90;;;;;;4984570;28;20042;-62
2023/12/10 02:35:27;;;;;;;14.57;4.03;;;6.70;99.90;;;;;;4984554;28;20402;-63
2023/12/10 02:37:53;;;;;;;13.07;4.07;;;6.70;99.90;;;;;;4985498;28;20045;-62
2023/12/10 02:40:18;;;;;;;17.98;3.15;;;6.70;99.90;;;;;;4986282;28;20044;-63
2023/12/10 02:42:48;;;;;;;10.38;2.85;;;6.90;99.90;;;;;;4986105;28;20552;-63
2023/12/10 02:45:14;;;;;;;12.70;2.40;;;6.90;99.90;;;;;;4985712;28;20442;-63
2023/12/10 02:47:40;;;;;;;17.17;3.30;;;6.90;99.90;;;;;;4986325;28;20041;-62
2023/12/10 02:50:07;;;;;;;11.82;3.25;;;6.90;99.90;;;;;;4986257;28;20407;-63
2023/12/10 02:52:35;;;;;;;23.70;3.20;;;6.90;99.90;;;;;;4983953;28;20039;-63
2023/12/10 02:55:01;;;;;;;18.70;3.75;;;6.90;99.90;;;;;;4985043;28;20034;-63
2023/12/10 02:57:26;;;;;;;14.85;3.75;;;6.90;99.90;;;;;;4984663;28;20034;-63
2023/12/10 02:59:52;;;;;;;15.75;2.00;;;6.90;99.90;;;;;;4985757;28;20041;-64
2023/12/10 03:02:17;;;;;;;16.48;2.58;;;6.80;99.90;;;;;;4986045;28;20030;-64
2023/12/10 03:04:43;;;;;;;10.80;1.58;;;6.80;99.90;;;;;;4985366;28;20499;-62
2023/12/10 03:07:09;;;;;;;13.20;2.20;;;6.80;99.90;;;;;;4985727;28;20022;-63
2023/12/10 03:09:35;;;;;;;12.50;2.20;;;6.80;99.90;;;;;;4989600;28;20029;-62
2023/12/10 03:12:00;;;;;;;13.15;2.47;;;6.70;99.90;;;;;;4986339;28;20061;-62
2023/12/10 03:14:26;;;;;;;16.88;2.60;;;6.70;99.90;;;;;;4984971;28;20506;-63
2023/12/10 03:16:52;;;;;;;20.35;3.33;;;6.70;99.90;;;;;;4985202;28;20616;-61
2023/12/10 03:19:17;;;;;;;20.20;3.15;;;6.70;99.90;;;;;;4984410;28;20030;-62
2023/12/10 03:21:43;;;;;;;13.73;2.53;;;6.70;99.90;;;;;;4985026;28;20034;-63
2023/12/10 03:24:08;;;;;;;13.07;2.42;;;6.60;99.90;;;;;;4985251;28;20030;-63
2023/12/10 03:26:34;;;;;;;12.02;2.22;;;6.50;99.90;;;;;;4984253;28;20070;-62
2023/12/10 03:29:00;;;;;;;19.30;2.42;;;6.50;99.90;;;;;;4985239;28;20056;-63
2023/12/10 03:31:25;;;;;;;27.13;4.03;;;6.40;99.90;;;;;;4986910;28;20092;-63
2023/12/10 03:33:51;;;;;;;15.70;2.60;;;6.40;99.90;;;;;;4989882;28;20030;-62
2023/12/10 03:36:18;;;;;;;17.85;2.95;;;6.40;99.90;;;;;;4988892;28;20038;-62
2023/12/10 03:38:44;;;;;;;19.70;3.65;;;6.40;99.90;;;;;;4988334;28;21425;-62
2023/12/10 03:41:09;;;;;;;21.25;3.97;;;6.40;99.90;;;;;;4987785;28;20035;-63
2023/12/10 03:43:35;;;;;;;28.55;5.43;;;6.30;99.90;;;;;;4989391;28;20112;-62
2023/12/10 03:46:01;;;;;;;18.85;3.05;;;6.30;99.90;;;;;;4987332;28;20026;-62
2023/12/10 03:48:26;;;;;;;22.73;2.60;;;6.30;99.90;;;;;;4990547;28;20045;-62
2023/12/10 03:50:52;;;;;;;19.50;3.53;;;6.30;99.90;;;;;;4988627;28;20495;-63
2023/12/10 03:53:18;;;;;;;20.55;3.70;;;6.30;99.90;;;;;;4986843;28;20039;-62
2023/12/10 03:55:43;;;;;;;20.02;4.35;;;6.20;99.90;;;;;;4988366;28;20045;-62
2023/12/10 03:58:09;;;;;;;23.88;3.63;;;6.20;99.90;;;;;;4988811;28;20026;-62
2023/12/10 04:00:35;;;;;;;33.47;4.50;;;6.30;99.90;;;;;;4991515;28;20033;-62
2023/12/10 04:03:00;;;;;;;29.75;4.15;;;6.20;99.90;;;;;;4989097;28;20023;-62
2023/12/10 04:05:26;;;;;;;34.90;3.50;;;6.30;99.90;;;;;;4987908;28;20045;-62
2023/12/10 04:07:52;;;;;;;21.48;3.33;;;6.30;99.90;;;;;;4987785;28;20030;-61
2023/12/10 04:10:18;;;;;;;25.08;3.05;;;6.40;99.90;;;;;;4988283;28;20033;-62
2023/12/10 04:12:44;;;;;;;25.52;6.13;;;6.30;99.90;;;;;;4989437;28;20046;-62
2023/12/10 04:15:10;;;;;;;28.88;3.13;;;6.30;99.90;;;;;;4986619;28;20446;-62
2023/12/10 04:17:36;;;;;;;30.55;4.20;;;6.20;99.90;;;;;;4989001;28;20023;-62
2023/12/10 04:20:03;;;;;;;26.95;4.65;;;6.20;99.90;;;;;;4987184;28;20034;-62
2023/12/10 04:22:28;;;;;;;22.40;3.17;;;6.20;99.90;;;;;;4987395;28;20121;-65
2023/12/10 04:24:54;;;;;;;22.55;4.57;;;6.20;99.90;;;;;;4988089;28;20550;-62
2023/12/10 04:27:23;;;;;;;20.27;3.92;;;6.20;99.90;;;;;;4990512;28;20031;-61
2023/12/10 04:29:49;;;;;;;20.73;3.33;;;6.20;99.90;;;;;;4986578;28;20035;-62
2023/12/10 04:32:14;;;;;;;26.77;4.55;;;6.20;99.90;;;;;;4988261;28;20023;-63
2023/12/10 04:34:40;;;;;;;22.13;3.20;;;6.30;99.90;;;;;;4988190;28;20089;-63
2023/12/10 04:37:06;;;;;;;22.30;4.40;;;6.40;99.90;;;;;;4989397;28;20105;-63
2023/12/10 04:39:31;;;;;;;14.32;3.85;;;6.40;99.90;;;;;;4985394;28;20046;-62
2023/12/10 04:41:57;;;;;;;21.25;4.07;;;6.50;99.90;;;;;;4986927;28;20041;-62
2023/12/10 04:44:23;;;;;;;22.45;3.22;;;6.50;99.90;;;;;;4986141;28;20038;-62
2023/12/10 04:46:48;;;;;;;26.05;4.60;;;6.40;99.90;;;;;;4987713;28;20118;-62
2023/12/10 04:49:14;;;;;;;27.60;3.30;;;6.40;99.90;;;;;;4987709;28;20039;-63
2023/12/10 04:51:40;;;;;;;34.00;4.25;;;6.40;99.90;;;;;;4988484;28;20029;-63
2023/12/10 04:54:05;;;;;;;18.40;4.07;;;6.40;99.90;;;;;;4987264;28;20043;-63
2023/12/10 04:56:31;;;;;;;15.13;2.67;;;6.50;99.90;;;;;;4986792;28;20045;-62
2023/12/10 04:58:57;;;;;;;20.42;3.35;;;6.50;99.90;;;;;;4987445;28;20093;-62
2023/12/10 05:01:22;;;;;;;36.85;7.05;;;6.50;99.90;;;;;;4989625;28;20038;-62
2023/12/10 05:03:48;;;;;;;17.35;3.08;;;6.50;99.90;;;;;;4988344;28;20494;-63
2023/12/10 05:06:13;;;;;;;25.52;5.32;;;6.50;99.90;;;;;;4987594;28;20502;-62
2023/12/10 05:08:39;;;;;;;23.45;4.53;;;6.50;99.90;;;;;;4989126;28;20038;-62
2023/12/10 05:11:05;;;;;;;22.92;4.53;;;6.60;99.90;;;;;;4986720;28;20034;-62
2023/12/10 05:13:31;;;;;;;22.88;3.58;;;6.70;99.90;;;;;;4987368;28;20117;-63
2023/12/10 05:15:57;;;;;;;18.35;2.97;;;6.80;99.90;;;;;;4987824;28;20538;-62
2023/12/10 05:18:23;;;;;;;23.50;6.00;;;6.80;99.90;;;;;;4989687;28;20129;-62
2023/12/10 05:20:49;;;;;;;21.17;4.93;;;6.80;99.90;;;;;;4987463;28;20026;-62
2023/12/10 05:23:14;;;;;;;19.45;3.80;;;6.80;99.90;;;;;;4987088;28;20130;-62
2023/12/10 05:25:40;;;;;;;19.75;2.40;;;6.90;99.90;;;;;;4987051;28;20030;-61
2023/12/10 05:28:06;;;;;;;17.05;3.42;;;6.90;99.90;;;;;;4987692;28;20026;-62
2023/12/10 05:30:31;;;;;;;23.90;4.57;;;6.80;99.90;;;;;;4988364;28;20134;-62
2023/12/10 05:32:57;;;;;;;21.38;3.28;;;6.80;99.90;;;;;;4988185;28;20034;-62
2023/12/10 05:35:23;;;;;;;18.40;3.22;;;6.70;99.90;;;;;;4988681;28;20070;-62
2023/12/10 05:37:49;;;;;;;25.50;3.95;;;6.70;99.90;;;;;;4987464;28;20034;-62
2023/12/10 05:40:15;;;;;;;19.92;3.33;;;6.70;99.90;;;;;;4987001;28;20133;-62
2023/12/10 05:42:41;;;;;;;18.17;2.55;;;6.70;99.90;;;;;;4988220;28;20038;-63
2023/12/10 05:45:07;;;;;;;13.20;3.50;;;6.60;99.90;;;;;;4986740;28;20093;-62
2023/12/10 05:47:33;;;;;;;22.02;2.75;;;6.50;99.90;;;;;;4987921;28;20041;-62
2023/12/10 05:49:58;;;;;;;18.15;1.52;;;6.50;99.90;;;;;;4986681;28;20030;-61
2023/12/10 05:52:24;;;;;;;12.13;2.60;;;6.40;99.90;;;;;;4987621;28;20518;-62
2023/12/10 05:54:50;;;;;;;12.27;1.90;;;6.30;99.90;;;;;;4988307;28;20139;-62
2023/12/10 05:57:16;;;;;;;14.05;2.00;;;6.20;99.90;;;;;;4987194;28;20061;-63
2023/12/10 05:59:43;;;;;;;13.68;2.60;;;6.20;99.90;;;;;;4987939;28;20015;-62
2023/12/10 06:02:08;;;;;;;10.75;1.42;;;6.20;99.90;;;;;;4987140;28;20033;-62
2023/12/10 06:04:34;;;;;;;16.00;1.90;;;6.20;99.90;;;;;;4986376;28;20034;-62
2023/12/10 06:07:00;;;;;;;23.25;5.45;;;6.20;99.90;;;;;;4987300;28;20019;-61
2023/12/10 06:09:25;;;;;;;17.70;3.00;;;6.30;99.90;;;;;;4986620;28;20030;-62
2023/12/10 06:11:53;;;;;;;24.25;3.65;;;6.30;99.90;;;;;;4986972;28;20030;-62
2023/12/10 06:14:19;;;;;;;16.08;3.30;;;6.40;99.90;;;;;;4987079;28;20246;-61
2023/12/10 06:16:45;;;;;;;24.20;4.45;;;6.50;99.90;;;;;;4986621;28;20482;-61
2023/12/10 06:19:10;;;;;;;20.95;3.53;;;6.50;99.90;;;;;;4987640;28;20061;-62
2023/12/10 06:21:37;;;;;;;23.42;2.92;;;6.60;99.90;;;;;;4986528;28;20026;-63
2023/12/10 06:24:04;;;;;;;15.73;2.83;;;6.70;99.90;;;;;;4986495;28;20030;-62
2023/12/10 06:26:30;;;;;;;13.88;3.05;;;6.80;99.90;;;;;;4986772;28;20033;-61
2023/12/10 06:28:55;;;;;;;16.83;2.33;;;6.90;99.90;;;;;;4987208;28;20030;-62
2023/12/10 06:31:21;;;;;;;21.15;3.78;;;6.90;99.90;;;;;;4987378;28;20030;-63
2023/12/10 06:33:47;;;;;;;23.83;3.80;;;6.90;99.90;;;;;;4987171;28;20493;-62
2023/12/10 06:36:13;;;;;;;11.45;2.45;;;6.90;99.90;;;;;;4986535;28;20150;-62
2023/12/10 06:38:38;;;;;;;18.10;3.55;;;6.90;99.90;;;;;;4985548;28;20027;-62
2023/12/10 06:41:05;;;;;;;16.70;2.95;;;6.90;99.90;;;;;;4986620;28;20541;-62
2023/12/10 06:43:31;;;;;;;13.35;2.83;;;6.90;99.90;;;;;;4986439;28;20813;-62
2023/12/10 06:45:58;;;;;;;19.60;3.15;;;6.90;99.90;;;;;;4987488;28;20034;-62
2023/12/10 06:48:25;;;;;;;17.60;4.93;;;6.90;99.90;;;;;;4986715;28;20024;-62
2023/12/10 06:50:51;;;;;;;17.17;3.38;;;6.90;99.90;;;;;;4987641;28;20023;-62
2023/12/10 06:53:17;;;;;;;20.20;3.28;;;6.90;99.90;;;;;;4987984;28;20038;-63
2023/12/10 06:55:43;;;;;;;16.60;2.78;;;6.80;99.90;;;;;;4985288;28;20575;-62
2023/12/10 06:58:08;;;;;;;13.30;2.22;;;6.80;99.90;;;;;;4986792;28;20077;-63
2023/12/10 07:00:34;;;;;;;18.40;3.25;;;6.80;99.90;;;;;;4986216;28;20033;-62
2023/12/10 07:03:00;;;;;;;16.10;2.85;;;6.80;99.90;;;;;;4986185;28;20861;-62
2023/12/10 07:05:26;;;;;;;9.63;1.80;;;6.90;99.90;;;;;;4989886;28;20129;-62
2023/12/10 07:07:51;;;;;;;11.25;2.20;;;6.90;99.90;;;;;;4995841;28;20026;-62
2023/12/10 07:10:17;;;;;;;14.85;2.00;;;6.90;99.90;;;;;;4991184;28;20042;-62
2023/12/10 07:12:43;;;;;;;9.75;1.77;;;6.90;99.90;;;;;;4992005;28;20022;-61
2023/12/10 07:15:08;;;;;;;9.38;1.88;;;6.90;99.90;;;;;;4988720;28;20129;-61
2023/12/10 07:17:36;;;;;;;17.13;2.13;;;6.90;99.90;;;;;;4987870;28;20058;-62
2023/12/10 07:20:02;;;;;;;8.95;2.35;;;6.90;99.90;;;;;;4989695;28;20097;-61
2023/12/10 07:22:28;;;;;;;16.70;2.55;;;6.90;99.90;;;;;;4990801;28;20085;-62
2023/12/10 07:24:54;;;;;;;14.50;2.30;;;6.90;99.90;;;;;;4989895;28;20026;-62
2023/12/10 07:27:19;;;;;;;11.10;2.15;;;6.90;99.90;;;;;;4990618;28;20136;-62
2023/12/10 07:29:45;;;;;;;13.23;3.80;;;6.90;99.90;;;;;;4990515;28;20049;-62
2023/12/10 07:32:10;;;;;;;9.98;1.83;;;7.00;99.90;;;;;;4988657;28;20117;-61
2023/12/10 07:34:36;;;;;;;17.55;2.53;;;7.00;99.90;;;;;;4990056;28;20556;-62
2023/12/10 07:37:02;;;;;;;16.63;2.05;;;7.00;99.90;;;;;;4989684;28;20023;-62
2023/12/10 07:39:28;;;;;;;14.30;2.95;;;7.00;99.90;;;;;;4990207;28;20018;-62
2023/12/10 07:41:54;;;;;;;12.48;2.05;;;7.00;99.90;;;;;;4990371;28;21045;-61
2023/12/10 07:44:19;;;;;;;10.43;2.10;;;7.00;99.90;;;;;;4989723;28;20116;-62
2023/12/10 07:46:45;;;;;;;10.38;1.80;;;7.00;99.90;;;;;;4989528;28;20498;-62
2023/12/10 07:49:11;;;;;;;12.88;2.38;;;7.10;99.90;;;;;;4989974;28;20097;-62
2023/12/10 07:51:36;;;;;;;10.32;2.47;;;7.10;99.90;;;;;;4990334;28;20037;-60
2023/12/10 07:54:02;;;;;;;9.10;1.77;;;7.10;99.90;;;;;;4989891;28;20030;-61
2023/12/10 07:56:27;;;;;;;9.13;1.85;;;7.10;99.90;;;;;;4989406;28;20037;-62
2023/12/10 07:58:53;;;;;;;8.85;1.75;;;7.10;99.90;;;;;;4989847;28;20038;-62
2023/12/10 08:01:19;;;;;;;10.50;2.38;;;7.10;99.90;;;;;;4989179;28;20050;-60
2023/12/10 08:03:44;;;;;;;11.52;2.00;;;7.10;99.90;;;;;;4990289;28;20144;-62
2023/12/10 08:06:10;;;;;;;13.35;2.40;;;7.10;99.90;;;;;;4990005;28;20057;-62
2023/12/10 08:08:36;;;;;;;15.25;3.20;;;7.10;99.90;;;;;;4989586;28;20525;-62
2023/12/10 08:11:03;;;;;;;11.27;2.17;;;7.10;99.90;;;;;;4989571;28;20486;-62
2023/12/10 08:13:29;;;;;;;13.80;2.25;;;7.00;99.90;;;;;;4989077;28;20792;-59
2023/12/10 08:15:54;;;;;;;11.90;2.45;;;6.90;99.90;;;;;;4989360;28;20026;-62
2023/12/10 08:18:20;;;;;;;14.60;2.65;;;6.80;99.90;;;;;;4989804;28;20034;-61
2023/12/10 08:20:46;;;;;;;8.43;2.05;;;6.80;99.90;;;;;;4987063;28;20042;-62
2023/12/10 08:23:11;;;;;;;16.80;3.40;;;6.70;99.90;;;;;;4987582;28;20101;-62
2023/12/10 08:25:37;;;;;;;17.27;2.90;;;6.70;99.90;;;;;;4987142;28;20041;-62
2023/12/10 08:28:03;;;;;;;13.25;3.20;;;6.70;99.90;;;;;;4988221;28;20030;-61
2023/12/10 08:30:29;;;;;;;13.48;2.83;;;6.70;99.90;;;;;;4989292;28;20108;-61
2023/12/10 08:32:54;;;;;;;12.57;2.63;;;6.70;99.90;;;;;;4989406;28;20037;-63
2023/12/10 08:35:20;;;;;;;13.13;2.22;;;6.70;99.90;;;;;;4988946;28;20045;-61
2023/12/10 08:37:45;;;;;;;9.32;2.20;;;6.80;99.90;;;;;;4989183;28;20049;-62
2023/12/10 08:40:11;;;;;;;19.33;2.95;;;6.90;99.90;;;;;;4988977;28;20030;-62
2023/12/10 08:42:37;;;;;;;9.18;2.38;;;7.00;99.90;;;;;;4988213;28;20036;-62
2023/12/10 08:45:03;;;;;;;15.90;3.35;;;7.10;99.90;;;;;;4988867;28;20038;-61
2023/12/10 08:47:28;;;;;;;11.23;2.70;;;7.20;99.90;;;;;;4989346;28;20399;-62
2023/12/10 08:49:54;;;;;;;11.85;2.17;;;7.30;99.90;;;;;;4988901;28;20157;-61
2023/12/10 08:52:23;;;;;;;13.90;3.25;;;7.40;99.90;;;;;;4989376;28;20117;-61
2023/12/10 08:54:48;;;;;;;13.55;4.07;;;7.40;99.90;;;;;;4988033;28;20070;-62
2023/12/10 08:57:14;;;;;;;19.63;3.40;;;7.50;99.90;;;;;;4989318;28;20057;-63
2023/12/10 08:59:40;;;;;;;22.75;5.28;;;7.50;99.90;;;;;;4987705;28;20100;-61
2023/12/10 09:02:06;;;;;;;11.70;3.33;;;7.40;99.90;;;;;;4987599;28;20058;-62
2023/12/10 09:04:31;;;;;;;14.85;2.50;;;7.30;99.90;;;;;;4988538;28;20022;-62
2023/12/10 09:06:57;;;;;;;8.57;2.88;;;7.20;99.90;;;;;;4988923;28;20576;-61
2023/12/10 09:09:22;;;;;;;16.95;2.53;;;7.30;99.90;;;;;;4989269;28;20022;-62
2023/12/10 09:11:48;;;;;;;18.02;3.90;;;7.30;99.90;;;;;;4988722;28;20019;-62
2023/12/10 09:14:14;;;;;;;20.50;2.63;;;7.20;99.90;;;;;;4988355;28;20062;-62
2023/12/10 09:16:40;;;;;;;19.13;3.72;;;7.10;99.90;;;;;;4988469;28;20027;-62
2023/12/10 09:19:06;;;;;;;10.60;2.42;;;7.10;99.90;;;;;;4988460;28;20038;-62
2023/12/10 09:21:31;;;;;;;14.48;3.45;;;7.10;99.90;;;;;;4988997;28;20018;-61
2023/12/10 09:23:57;;;;;;;19.05;2.53;;;7.00;99.90;;;;;;4988319;28;20109;-61
2023/12/10 09:26:23;;;;;;;11.60;3.05;;;6.90;99.90;;;;;;4988104;28;20066;-62
2023/12/10 09:28:48;;;;;;;19.02;3.47;;;6.80;99.90;;;;;;4986899;28;20023;-62
2023/12/10 09:31:14;;;;;;;15.13;3.08;;;6.80;99.90;;;;;;4987793;28;20034;-62
2023/12/10 09:33:39;;;;;;;20.75;3.72;;;6.80;99.90;;;;;;4988822;28;20026;-61
2023/12/10 09:36:05;;;;;;;20.58;3.90;;;6.80;99.90;;;;;;4988197;28;20057;-63
2023/12/10 09:38:31;;;;;;;14.40;2.75;;;6.80;99.90;;;;;;4988238;28;20181;-62
2023/12/10 09:40:57;;;;;;;17.38;2.53;;;6.80;99.90;;;;;;4988118;28;20038;-62
2023/12/10 09:43:23;;;;;;;19.60;3.28;;;6.90;99.90;;;;;;4986694;28;20027;-61
2023/12/10 09:45:49;;;;;;;14.65;3.28;;;7.00;99.90;;;;;;4986951;28;20079;-61
2023/12/10 09:48:16;;;;;;;13.48;2.58;;;7.00;99.90;;;;;;4988370;28;20553;-62
2023/12/10 09:50:42;;;;;;;19.27;2.80;;;7.10;99.90;;;;;;4988174;28;20491;-62
2023/12/10 09:53:08;;;;;;;11.85;3.20;;;7.10;99.90;;;;;;4987716;28;20041;-62
2023/12/10 09:55:35;;;;;;;17.92;3.15;;;7.20;99.90;;;;;;4985698;28;20034;-63
2023/12/10 09:58:01;;;;;;;15.43;4.25;;;7.30;99.90;;;;;;4986727;28;20074;-61
2023/12/10 10:00:27;;;;;;;12.90;2.47;;;7.30;99.90;;;;;;4988032;28;20087;-61
2023/12/10 10:03:00;;;;;;;14.35;3.03;;;7.40;99.90;;;;;;4986292;28;20105;-62
2023/12/10 10:05:26;;;;;;;16.70;3.50;;;7.50;99.90;;;;;;4987283;28;20034;-62
2023/12/10 10:07:52;;;;;;;11.38;2.28;;;7.60;99.90;;;;;;4987992;28;20033;-62
2023/12/10 10:10:21;;;;;;;9.82;2.45;;;7.60;99.90;;;;;;4987619;28;20034;-63
2023/12/10 10:12:47;;;;;;;15.25;3.20;;;7.60;99.90;;;;;;4986101;28;20570;-62
2023/12/10 10:15:13;;;;;;;16.85;2.95;;;7.70;99.90;;;;;;4988875;28;20136;-63
2023/12/10 10:17:38;;;;;;;11.85;2.85;;;7.80;99.90;;;;;;4986906;28;20088;-62
2023/12/10 10:20:04;;;;;;;10.98;2.45;;;7.90;99.90;;;;;;4985825;28;20038;-62
2023/12/10 10:22:30;;;;;;;12.95;2.08;;;8.00;99.90;;;;;;4986639;28;20035;-62
2023/12/10 10:24:56;;;;;;;15.35;3.42;;;8.00;99.90;;;;;;4986102;28;20030;-62
2023/12/10 10:27:23;;;;;;;14.95;3.00;;;8.10;99.90;;;;;;4986658;28;20094;-62
2023/12/10 10:29:53;;;;;;;15.15;3.78;;;8.10;99.90;;;;;;4986663;28;20025;-62
2023/12/10 10:32:19;;;;;;;21.55;2.15;;;8.00;99.90;;;;;;4986485;28;20045;-62
2023/12/10 10:34:49;;;;;;;12.23;2.65;;;8.00;99.90;;;;;;4986701;28;20482;-63
2023/12/10 10:37:16;;;;;;;18.42;2.30;;;8.00;99.90;;;;;;4984588;28;20038;-62
2023/12/10 10:39:48;;;;;;;8.77;1.83;;;8.10;99.90;;;;;;4987125;28;20022;-62
2023/12/10 10:42:13;;;;;;;14.48;3.42;;;8.10;99.90;;;;;;5001025;28;20034;-62
2023/12/10 10:44:39;;;;;;;10.48;2.60;;;8.10;99.90;;;;;;4986023;28;20026;-61
2023/12/10 10:47:07;;;;;;;9.60;2.33;;;8.10;99.90;;;;;;4986605;28;20042;-62
2023/12/10 10:49:38;;;;;;;10.98;2.10;;;8.10;99.90;;;;;;4985254;28;20030;-61
2023/12/10 10:52:08;;;;;;;10.88;1.95;;;8.20;99.90;;;;;;4986449;28;20049;-61
2023/12/10 10:54:35;;;;;;;16.63;2.33;;;8.30;99.90;;;;;;4986052;28;20034;-62
2023/12/10 10:57:01;;;;;;;12.00;2.97;;;8.30;99.90;;;;;;4986465;28;20085;-62
2023/12/10 10:59:30;;;;;;;10.13;2.55;;;8.40;99.90;;;;;;4985508;28;20039;-62
2023/12/10 11:01:58;;;;;;;11.25;3.67;;;8.40;99.90;;;;;;4989353;28;20081;-62
2023/12/10 11:04:24;;;;;;;10.63;2.10;;;8.50;99.90;;;;;;4984968;28;20031;-62
2023/12/10 11:06:51;;;;;;;13.73;2.28;;;8.50;99.90;;;;;;4986523;28;20112;-62
2023/12/10 11:09:17;;;;;;;19.73;2.83;;;8.50;99.90;;;;;;4990500;28;20137;-62
2023/12/10 11:11:43;;;;;;;15.63;3.80;;;8.50;99.90;;;;;;4987734;28;20495;-62
2023/12/10 11:14:37;;;;;;;14.30;1.92;;;8.50;99.90;;;;;;4986495;28;20074;-62
2023/12/10 11:17:06;;;;;;;14.60;2.03;;;8.50;99.90;;;;;;4980454;28;20043;-62
2023/12/10 11:19:32;;;;;;;11.43;3.15;;;8.50;99.90;;;;;;4986729;28;20058;-61
2023/12/10 11:21:59;;;;;;;14.18;2.10;;;8.50;99.90;;;;;;4987476;28;20030;-61
2023/12/10 11:24:25;;;;;;;12.60;2.83;;;8.50;99.90;;;;;;4986486;28;20022;-62
2023/12/10 11:26:51;;;;;;;14.18;4.15;;;8.50;99.90;;;;;;4986476;28;20026;-61
2023/12/10 11:29:16;;;;;;;11.40;2.22;;;8.50;99.90;;;;;;4986206;28;20117;-62
2023/12/10 11:31:44;;;;;;;19.88;2.67;;;8.50;99.90;;;;;;4986657;28;20116;-62
2023/12/10 11:34:10;;;;;;;15.73;3.13;;;8.50;99.90;;;;;;4985696;28;20022;-62
2023/12/10 11:36:36;;;;;;;12.93;2.67;;;8.60;99.90;;;;;;4986528;28;20610;-62
2023/12/10 11:39:01;;;;;;;13.05;2.63;;;8.70;99.90;;;;;;4985871;28;20034;-62
2023/12/10 11:41:27;;;;;;;13.60;2.35;;;8.80;99.90;;;;;;4985158;28;20116;-62
2023/12/10 11:43:53;;;;;;;7.60;1.90;;;8.90;99.90;;;;;;4986244;28;20026;-61
2023/12/10 11:46:23;;;;;;;17.33;1.75;;;8.90;99.90;;;;;;4985459;28;20097;-64
2023/12/10 11:48:54;;;;;;;8.32;2.05;;;8.90;99.90;;;;;;4985643;28;20388;-62
2023/12/10 11:51:20;;;;;;;10.18;2.40;;;8.90;99.90;;;;;;4985424;28;20042;-63
2023/12/10 11:53:47;;;;;;;11.02;2.88;;;8.80;99.90;;;;;;4986227;28;20035;-62
2023/12/10 11:56:13;;;;;;;15.50;2.05;;;8.70;99.90;;;;;;4988833;28;20077;-62
2023/12/10 11:58:41;;;;;;;13.35;1.92;;;8.70;99.90;;;;;;5004802;28;20661;-62
2023/12/10 12:01:07;;;;;;;10.27;2.22;;;8.80;99.90;;;;;;4987801;28;20113;-62
2023/12/10 12:03:34;;;;;;;9.45;2.55;;;8.80;99.90;;;;;;4989902;28;20494;-62
2023/12/10 12:05:59;;;;;;;15.00;1.45;;;8.80;99.90;;;;;;4989008;28;20026;-62
2023/12/10 12:08:27;;;;;;;10.15;2.15;;;8.80;99.90;;;;;;4989585;28;20034;-61
2023/12/10 12:10:57;;;;;;;12.20;1.85;;;8.70;99.90;;;;;;5003992;28;20026;-63
2023/12/10 12:13:23;;;;;;;8.60;2.15;;;8.70;99.90;;;;;;4995217;28;20030;-62
2023/12/10 12:15:50;;;;;;;6.22;1.85;;;8.80;99.90;;;;;;4988872;28;20018;-63
2023/12/10 12:18:16;;;;;;;18.80;2.90;;;9.00;99.90;;;;;;4988950;28;20058;-62
2023/12/10 12:20:43;;;;;;;10.80;2.50;;;9.10;99.90;;;;;;4989097;28;20073;-62
2023/12/10 12:23:09;;;;;;;6.38;2.22;;;9.40;99.90;;;;;;4987870;28;20076;-63
2023/12/10 12:25:37;;;;;;;6.28;1.55;;;9.80;99.90;;;;;;4988176;28;20030;-62
2023/12/10 12:28:05;;;;;;;15.68;2.53;;;10.00;99.90;;;;;;4988679;28;20109;-63
2023/12/10 12:30:31;;;;;;;10.40;2.45;;;10.20;99.90;;;;;;4988719;28;20044;-62
2023/12/10 12:32:57;;;;;;;9.45;1.90;;;10.20;99.90;;;;;;4989597;28;20027;-63
2023/12/10 12:35:23;;;;;;;11.35;2.03;;;10.10;99.90;;;;;;4988368;28;20088;-62
2023/12/10 12:37:48;;;;;;;5.57;1.80;;;10.00;99.90;;;;;;4990595;28;20077;-63
2023/12/10 12:40:14;;;;;;;12.25;2.53;;;9.70;99.90;;;;;;4991894;28;20070;-63